Stow, ME

3:37 PM EDT on August 03, 2015 (GMT -0400)
Creeper Hill, NW Cove Kezar Lake | | Change Station
CLOSE
Current Station
Personal Weather Station
Location: Stow, ME
Elevation: 385 ft
Nearby Weather Stations
Active Advisory: Severe Thunderstorm Watch

Elev 385 ft 44.17 °N, 70.94 °W | Updated 14 seconds ago

Partly Cloudy
Partly Cloudy
85.2 °F
Feels Like 90 °F
N
0.0
Wind Variable Wind from SSW
Gusts 0.0 mph

Today
High -- | Low -- °F
--% Chance of Precip.
Yesterday
High -- | Low -- °F
Precip. -- in
5:33 AM 8:05 PM
Waning Gibbous, 84% visible
Pressure 29.74 in
Visibility 10.0 miles
Clouds Few 6000 ft
Heat Index 90 °F
Dew Point 70 °F
Humidity 60%
Rainfall 0.00 in
Snow Depth Not available.
UV 8 out of 12
Pollen 5.60 out of 12
Air Quality Not available.
Flu Activity Not available.
METAR KIZG 031854Z AUTO 18009G17KT 10SM FEW060 32/21 A2974 RMK AO2 SLP069 T03170206

More Conditions Fewer Conditions

Pressure 29.74 in
Visibility 10.0 miles
Clouds Few 6000 ft
Heat Index 90 °F
Dew Point 70 °F
Humidity 60%
Rainfall 0.00 in
Snow Depth Not available.
UV 8 out of 12
Pollen 5.60 out of 12
Air Quality Not available.
Flu Activity Not available.
METAR KIZG 031854Z AUTO 18009G17KT 10SM FEW060 32/21 A2974 RMK AO2 SLP069 T03170206

More Conditions Fewer Conditions

10-Day Weather Forecast

×

Almanac

Astronomy

Aug. 03, 2015 Rise Set
Actual Time
Civil Twilight
Nautical Twilight
Astronomical Twilight
Moon
Length of Visible Light
Length of Day
Tomorrow will be .
, % of the Moon is Illuminated

Today's Extremes

State Highs State Lows

Community

WunderPhotos

Upload Photos

1,843,714 photos uploaded!

WunderBlogs® & News

Nearby

Air Quality

  Air Quality AQ Index Pollutant
Not available.

Snow Depth

Station Depth Elevation

Earthquake Activity

City Distance Mag. Time & Date
Minimum magnitude displayed is 2.5.

Coastal Water Temperatures

Place Temperature

Stations

Nearby Weather Stations

Station Location Temp. Windchill Dew Point Humidity Wind Precip. Elev Updated Type
                   
Severe Thunderstorm Watch
Statement as of 1:43 PM EDT on August 03, 2015

Severe Thunderstorm Watch 466 remains in effect until 900 PM EDT
for the following locations


ME
. Maine counties included are

Aroostook Franklin Oxford
Penobscot Piscataquis Somerset